createdAt,value
2022-12-31T00:00:11.753Z,5.97
2022-12-31T00:02:39.791Z,5.94
2022-12-31T00:05:07.491Z,5.89
2022-12-31T00:10:04.343Z,5.84
2022-12-31T00:12:31.703Z,5.82
2022-12-31T00:14:58.683Z,5.82
2022-12-31T00:17:25.932Z,5.82
2022-12-31T00:19:53.454Z,5.82
2022-12-31T00:22:20.397Z,5.82
2022-12-31T00:24:47.604Z,5.82
2022-12-31T00:27:15.885Z,5.83
2022-12-31T00:29:42.846Z,5.84
2022-12-31T00:32:10.012Z,5.85
2022-12-31T00:34:37.446Z,5.84
2022-12-31T00:37:04.602Z,5.82
2022-12-31T00:39:32.050Z,5.80
2022-12-31T00:41:59.377Z,5.81
2022-12-31T00:44:26.462Z,5.82
2022-12-31T00:46:54.370Z,5.83
2022-12-31T00:49:21.204Z,5.81
2022-12-31T00:51:48.559Z,5.81
2022-12-31T00:54:15.659Z,5.80
2022-12-31T00:56:43.283Z,5.82
2022-12-31T00:59:10.342Z,5.86
2022-12-31T01:01:40.011Z,5.91
2022-12-31T01:04:19.329Z,5.94
2022-12-31T01:06:47.302Z,5.97
2022-12-31T01:09:16.461Z,6.00
2022-12-31T01:11:43.405Z,6.06
2022-12-31T01:14:17.120Z,6.08
2022-12-31T01:16:50.492Z,6.09
2022-12-31T01:19:29.001Z,6.10
2022-12-31T01:21:56.382Z,6.12
2022-12-31T01:24:24.009Z,6.11
2022-12-31T01:26:51.769Z,6.10
2022-12-31T01:29:19.215Z,6.12
2022-12-31T01:31:46.492Z,6.14
2022-12-31T01:34:13.849Z,6.13
2022-12-31T01:36:41.490Z,6.09
2022-12-31T01:39:10.848Z,6.04
2022-12-31T01:41:43.472Z,6.00
2022-12-31T01:44:13.956Z,5.97
2022-12-31T01:46:42.804Z,5.96
2022-12-31T01:49:21.605Z,5.95
2022-12-31T01:51:54.804Z,5.95
2022-12-31T01:54:22.819Z,5.94
2022-12-31T01:56:51.009Z,5.94
2022-12-31T01:59:19.245Z,5.93
2022-12-31T02:01:48.595Z,5.90
2022-12-31T02:04:16.405Z,5.88
2022-12-31T02:07:03.184Z,5.88
2022-12-31T02:09:32.046Z,5.91
2022-12-31T02:11:59.258Z,5.96
2022-12-31T02:14:35.046Z,5.99
2022-12-31T02:17:10.760Z,6.00
2022-12-31T02:20:06.060Z,5.95
2022-12-31T02:23:06.403Z,5.90
2022-12-31T02:25:50.819Z,5.85
2022-12-31T02:28:42.092Z,5.82
2022-12-31T02:31:30.857Z,5.82
2022-12-31T02:34:12.666Z,5.86
2022-12-31T02:36:43.032Z,5.88
2022-12-31T02:39:11.817Z,5.92
2022-12-31T02:41:51.860Z,5.93
2022-12-31T02:44:26.365Z,5.94
2022-12-31T02:47:00.848Z,5.92
2022-12-31T02:49:52.720Z,5.92
2022-12-31T02:52:41.724Z,5.93
2022-12-31T02:55:19.904Z,5.95
2022-12-31T02:57:48.560Z,5.96
2022-12-31T03:00:36.136Z,5.95
2022-12-31T03:03:04.210Z,5.96
2022-12-31T03:05:34.741Z,5.99
2022-12-31T03:08:02.327Z,6.02
2022-12-31T03:10:29.530Z,6.04
2022-12-31T03:12:57.041Z,6.04
2022-12-31T03:15:26.505Z,6.04
2022-12-31T03:18:12.161Z,6.02
2022-12-31T03:21:01.764Z,6.01
2022-12-31T03:23:37.693Z,6.00
2022-12-31T03:26:10.534Z,6.02
2022-12-31T03:28:40.529Z,6.02
2022-12-31T03:31:08.303Z,6.02
2022-12-31T03:33:40.927Z,6.01
2022-12-31T03:36:12.342Z,6.01
2022-12-31T03:38:40.325Z,6.01
2022-12-31T03:41:09.760Z,6.01
2022-12-31T03:43:37.329Z,6.04
2022-12-31T03:46:04.865Z,6.07
2022-12-31T03:48:31.969Z,6.10
2022-12-31T03:50:58.820Z,6.11
2022-12-31T03:53:25.935Z,6.12
2022-12-31T03:55:53.598Z,6.10
2022-12-31T03:58:21.769Z,6.09
2022-12-31T04:00:49.829Z,6.07
2022-12-31T04:03:17.059Z,6.03
2022-12-31T04:05:44.286Z,6.01
2022-12-31T04:08:11.021Z,6.02
2022-12-31T04:10:38.591Z,6.03
2022-12-31T04:13:06.408Z,6.05
2022-12-31T04:15:33.603Z,6.07
2022-12-31T04:18:00.610Z,6.08
2022-12-31T04:20:28.052Z,6.08
2022-12-31T04:22:55.249Z,6.05
2022-12-31T04:25:22.769Z,6.00
2022-12-31T04:27:49.764Z,5.96
2022-12-31T04:30:17.017Z,5.96
2022-12-31T04:32:43.882Z,5.98
2022-12-31T04:35:12.566Z,5.99
2022-12-31T04:37:39.288Z,5.99
2022-12-31T04:40:07.680Z,5.98
2022-12-31T04:42:35.924Z,5.97
2022-12-31T04:45:03.896Z,5.94
2022-12-31T04:47:31.535Z,5.94
2022-12-31T04:49:58.689Z,5.93
2022-12-31T04:52:25.862Z,5.93
2022-12-31T04:54:53.125Z,5.93
2022-12-31T04:57:20.339Z,5.95
2022-12-31T04:59:47.451Z,5.98
2022-12-31T05:02:15.210Z,6.02
2022-12-31T05:04:44.412Z,6.05
2022-12-31T05:07:11.367Z,6.09
2022-12-31T05:09:38.608Z,6.11
2022-12-31T05:12:06.241Z,6.13
2022-12-31T05:14:33.611Z,6.13
2022-12-31T05:17:01.242Z,6.13
2022-12-31T05:19:28.474Z,6.14
2022-12-31T05:22:14.470Z,6.16
2022-12-31T05:24:42.113Z,6.19
2022-12-31T05:27:09.415Z,6.21
2022-12-31T05:29:36.288Z,6.22
2022-12-31T05:32:03.862Z,6.22
2022-12-31T05:34:31.450Z,6.21
2022-12-31T05:36:58.291Z,6.21
2022-12-31T05:39:25.875Z,6.21
2022-12-31T05:41:53.124Z,6.21
2022-12-31T05:44:20.771Z,6.24
2022-12-31T05:46:48.027Z,6.24
2022-12-31T05:49:16.520Z,6.23
2022-12-31T05:51:43.451Z,6.22
2022-12-31T05:54:11.006Z,6.23
2022-12-31T05:56:38.504Z,6.24
2022-12-31T05:59:06.088Z,6.26
2022-12-31T06:01:34.364Z,6.26
2022-12-31T06:04:01.943Z,6.26
2022-12-31T06:06:29.277Z,6.26
2022-12-31T06:08:56.268Z,6.26
2022-12-31T06:11:23.368Z,6.26
2022-12-31T06:13:50.723Z,6.28
2022-12-31T06:16:17.949Z,6.31
2022-12-31T06:18:50.400Z,6.32
2022-12-31T06:21:18.971Z,6.34
2022-12-31T06:23:46.464Z,6.37
2022-12-31T06:26:13.926Z,6.39
2022-12-31T06:28:41.568Z,6.40
2022-12-31T06:31:12.533Z,6.39
2022-12-31T06:33:40.367Z,6.41
2022-12-31T06:36:09.051Z,6.42
2022-12-31T06:38:38.360Z,6.43
2022-12-31T06:41:05.846Z,6.46
2022-12-31T06:43:34.798Z,6.48
2022-12-31T06:46:02.751Z,6.51
2022-12-31T06:48:30.349Z,6.53
2022-12-31T06:50:57.836Z,6.55
2022-12-31T06:53:25.071Z,6.54
2022-12-31T06:55:52.678Z,6.54
2022-12-31T06:58:20.038Z,6.55
2022-12-31T07:01:28.908Z,6.55
2022-12-31T07:04:32.634Z,6.57
2022-12-31T07:07:08.793Z,6.58
2022-12-31T07:09:54.235Z,6.59
2022-12-31T07:12:46.500Z,6.58
2022-12-31T07:15:36.992Z,6.57
2022-12-31T07:18:28.323Z,6.56
2022-12-31T07:20:56.555Z,6.55
2022-12-31T07:23:23.763Z,6.54
2022-12-31T07:26:26.288Z,6.54
2022-12-31T07:29:02.015Z,6.55
2022-12-31T07:31:32.093Z,6.57
2022-12-31T07:34:01.919Z,6.57
2022-12-31T07:36:53.475Z,6.58
2022-12-31T07:39:32.123Z,6.58
2022-12-31T07:41:59.848Z,6.57
2022-12-31T07:44:48.637Z,6.56
2022-12-31T07:47:27.085Z,6.57
2022-12-31T07:49:55.405Z,6.58
2022-12-31T07:52:23.769Z,6.58
2022-12-31T07:54:51.635Z,6.59
2022-12-31T07:57:20.982Z,6.64
2022-12-31T08:00:00.227Z,6.68
2022-12-31T08:02:39.365Z,6.72
2022-12-31T08:05:45.309Z,6.72
2022-12-31T08:08:15.924Z,6.74
2022-12-31T08:10:59.094Z,6.74
2022-12-31T08:13:27.208Z,6.77
2022-12-31T08:15:54.799Z,6.79
2022-12-31T08:18:21.907Z,6.82
2022-12-31T08:21:19.096Z,6.86
2022-12-31T08:23:54.541Z,6.91
2022-12-31T08:26:38.268Z,6.93
2022-12-31T08:29:31.733Z,6.94
2022-12-31T08:32:44.868Z,6.95
2022-12-31T08:35:23.049Z,6.96
2022-12-31T08:38:01.389Z,6.97
2022-12-31T08:40:58.221Z,6.98
2022-12-31T08:43:44.641Z,7.01
2022-12-31T08:46:34.511Z,7.05
2022-12-31T08:49:02.079Z,7.08
2022-12-31T08:51:29.453Z,7.09
2022-12-31T08:53:57.248Z,7.11
2022-12-31T08:56:33.171Z,7.12
2022-12-31T08:59:26.107Z,7.10
2022-12-31T09:01:59.564Z,7.09
2022-12-31T09:04:47.448Z,7.08
2022-12-31T09:07:15.370Z,7.07
2022-12-31T09:10:20.122Z,7.08
2022-12-31T09:12:52.483Z,7.11
2022-12-31T09:15:49.148Z,7.12
2022-12-31T09:18:16.770Z,7.11
2022-12-31T09:20:44.720Z,7.12
2022-12-31T09:23:13.014Z,7.13
2022-12-31T09:25:50.168Z,7.12
2022-12-31T09:28:40.846Z,7.12
2022-12-31T09:31:49.198Z,7.11
2022-12-31T09:34:24.247Z,7.13
2022-12-31T09:36:58.247Z,7.16
2022-12-31T09:39:41.215Z,7.16
2022-12-31T09:42:39.173Z,7.15
2022-12-31T09:45:45.171Z,7.16
2022-12-31T09:48:15.729Z,7.18
2022-12-31T09:51:04.229Z,7.18
2022-12-31T09:53:49.599Z,7.20
2022-12-31T09:56:36.091Z,7.25
2022-12-31T09:59:13.290Z,7.28
2022-12-31T10:02:11.930Z,7.30
2022-12-31T10:05:09.487Z,7.28
2022-12-31T10:07:58.930Z,7.27
2022-12-31T10:10:30.826Z,7.25
2022-12-31T10:13:39.264Z,7.27
2022-12-31T10:16:39.373Z,7.29
2022-12-31T10:19:25.370Z,7.33
2022-12-31T10:22:16.994Z,7.34
2022-12-31T10:25:38.353Z,7.32
2022-12-31T10:28:31.788Z,7.31
2022-12-31T10:31:10.733Z,7.30
2022-12-31T10:33:47.080Z,7.27
2022-12-31T10:36:23.031Z,7.28
2022-12-31T10:38:55.332Z,7.26
2022-12-31T10:41:51.557Z,7.27
2022-12-31T10:44:43.160Z,7.28
2022-12-31T10:47:17.976Z,7.31
2022-12-31T10:50:08.377Z,7.30
2022-12-31T10:53:01.342Z,7.30
2022-12-31T10:56:07.478Z,7.29
2022-12-31T10:59:05.663Z,7.30
2022-12-31T11:02:17.840Z,7.31
2022-12-31T11:05:22.707Z,7.35
2022-12-31T11:08:28.554Z,7.35
2022-12-31T11:11:04.444Z,7.30
2022-12-31T11:14:04.330Z,7.30
2022-12-31T11:16:50.500Z,7.28
2022-12-31T11:19:39.409Z,7.27
2022-12-31T11:22:22.633Z,7.25
2022-12-31T11:25:07.896Z,7.23
2022-12-31T11:27:53.637Z,7.16
2022-12-31T11:30:25.128Z,7.10
2022-12-31T11:32:58.209Z,7.08
2022-12-31T11:36:04.480Z,7.12
2022-12-31T11:38:50.664Z,7.12
2022-12-31T11:41:49.663Z,7.11
2022-12-31T11:44:46.276Z,7.11
2022-12-31T11:47:32.300Z,7.12
2022-12-31T11:50:28.281Z,7.15
2022-12-31T11:53:11.563Z,7.18
2022-12-31T11:55:47.247Z,7.21
2022-12-31T11:58:17.098Z,7.24
2022-12-31T12:00:54.526Z,7.24
2022-12-31T12:03:22.809Z,7.25
2022-12-31T12:05:50.132Z,7.22
2022-12-31T12:08:17.590Z,7.22
2022-12-31T12:11:05.730Z,7.22
2022-12-31T12:13:38.300Z,7.22
2022-12-31T12:16:07.542Z,7.20
2022-12-31T12:18:51.541Z,7.18
2022-12-31T12:21:23.757Z,7.15
2022-12-31T12:24:01.073Z,7.16
2022-12-31T12:26:45.081Z,7.19
2022-12-31T12:29:23.276Z,7.24
2022-12-31T12:32:06.381Z,7.27
2022-12-31T12:34:43.118Z,7.26
2022-12-31T12:37:34.074Z,7.28
2022-12-31T12:40:19.427Z,7.32
2022-12-31T12:42:48.487Z,7.33
2022-12-31T12:45:21.535Z,7.35
2022-12-31T12:47:53.875Z,7.38
2022-12-31T12:50:24.412Z,7.39
2022-12-31T12:52:59.675Z,7.38
2022-12-31T12:55:29.962Z,7.39
2022-12-31T12:58:23.422Z,7.37
2022-12-31T13:00:56.151Z,7.39
2022-12-31T13:03:34.275Z,7.38
2022-12-31T13:06:20.709Z,7.39
2022-12-31T13:09:07.217Z,7.40
2022-12-31T13:12:10.921Z,7.40
2022-12-31T13:15:00.040Z,7.37
2022-12-31T13:17:43.945Z,7.39
2022-12-31T13:20:52.053Z,7.45
2022-12-31T13:23:28.093Z,7.49
2022-12-31T13:26:14.890Z,7.47
2022-12-31T13:28:43.768Z,7.46
2022-12-31T13:31:16.680Z,7.47
2022-12-31T13:33:54.065Z,7.48
2022-12-31T13:36:23.775Z,7.48
2022-12-31T13:38:53.603Z,7.48
2022-12-31T13:41:32.108Z,7.48
2022-12-31T13:44:16.874Z,7.50
2022-12-31T13:46:51.519Z,7.53
2022-12-31T13:49:43.691Z,7.56
2022-12-31T13:52:32.621Z,7.58
2022-12-31T13:55:21.045Z,7.63
2022-12-31T13:57:52.684Z,7.65
2022-12-31T14:00:23.834Z,7.66
2022-12-31T14:02:55.053Z,7.62
2022-12-31T14:05:36.459Z,7.60
2022-12-31T14:08:05.485Z,7.61
2022-12-31T14:10:54.379Z,7.61
2022-12-31T14:13:35.031Z,7.63
2022-12-31T14:16:23.443Z,7.64
2022-12-31T14:19:40.889Z,7.61
2022-12-31T14:22:27.050Z,7.59
2022-12-31T14:24:56.281Z,7.60
2022-12-31T14:27:30.122Z,7.59
2022-12-31T14:30:06.583Z,7.59
2022-12-31T14:32:55.676Z,7.60
2022-12-31T14:36:10.532Z,7.56
2022-12-31T14:38:46.971Z,7.56
2022-12-31T14:41:40.564Z,7.55
2022-12-31T14:44:44.497Z,7.53
2022-12-31T14:47:36.938Z,7.50
2022-12-31T14:50:17.603Z,7.50
2022-12-31T14:53:06.776Z,7.51
2022-12-31T14:55:38.027Z,7.53
2022-12-31T14:58:28.680Z,7.53
2022-12-31T15:01:00.681Z,7.53
2022-12-31T15:03:31.007Z,7.54
2022-12-31T15:06:35.974Z,7.53
2022-12-31T15:09:18.458Z,7.48
2022-12-31T15:12:11.887Z,7.47
2022-12-31T15:14:54.005Z,7.45
2022-12-31T15:17:33.892Z,7.44
2022-12-31T15:20:28.961Z,7.41
2022-12-31T15:22:55.441Z,7.40
2022-12-31T15:25:41.050Z,7.38
2022-12-31T15:28:32.611Z,7.37
2022-12-31T15:31:19.001Z,7.37
2022-12-31T15:34:01.382Z,7.38
2022-12-31T15:36:35.329Z,7.40
2022-12-31T15:39:22.204Z,7.43
2022-12-31T15:42:35.583Z,7.45
2022-12-31T15:44:37.081Z,7.47
2022-12-31T15:47:25.649Z,7.47
2022-12-31T15:49:52.582Z,7.49
2022-12-31T15:52:44.606Z,7.49
2022-12-31T15:55:48.607Z,7.51
2022-12-31T15:58:22.784Z,7.54
2022-12-31T16:01:09.588Z,7.58
2022-12-31T16:03:37.402Z,7.64
2022-12-31T16:06:10.763Z,7.65
2022-12-31T16:08:38.528Z,7.67
2022-12-31T16:11:08.129Z,7.66
2022-12-31T16:13:39.365Z,7.65
2022-12-31T16:16:18.921Z,7.63
2022-12-31T16:18:46.676Z,7.62
2022-12-31T16:21:32.908Z,7.61
2022-12-31T16:25:10.881Z,7.59
2022-12-31T16:27:35.465Z,7.53
2022-12-31T16:30:08.052Z,7.46
2022-12-31T16:32:38.006Z,7.38
2022-12-31T16:35:32.530Z,7.28
2022-12-31T16:38:17.072Z,7.33
2022-12-31T16:40:59.162Z,7.30
2022-12-31T16:43:27.874Z,7.28
2022-12-31T16:45:57.590Z,7.26
2022-12-31T16:48:25.219Z,7.24
2022-12-31T16:50:54.535Z,7.22
2022-12-31T16:53:24.270Z,7.18
2022-12-31T16:56:04.276Z,7.19
2022-12-31T16:58:48.028Z,7.21
2022-12-31T17:01:23.347Z,7.23
2022-12-31T17:03:54.231Z,7.21
2022-12-31T17:06:22.000Z,7.14
2022-12-31T17:08:59.962Z,7.09
2022-12-31T17:11:35.123Z,7.06
2022-12-31T17:14:08.793Z,7.04
2022-12-31T17:16:39.831Z,7.02
2022-12-31T17:19:06.910Z,7.01
2022-12-31T17:21:33.872Z,7.03
2022-12-31T17:24:04.351Z,7.05
2022-12-31T17:26:35.083Z,7.07
2022-12-31T17:29:04.896Z,7.09
2022-12-31T17:31:40.071Z,7.12
2022-12-31T17:34:31.383Z,7.11
2022-12-31T17:37:11.585Z,7.12
2022-12-31T17:39:43.596Z,7.13
2022-12-31T17:42:11.765Z,7.16
2022-12-31T17:44:42.571Z,7.19
2022-12-31T17:47:13.816Z,7.22
2022-12-31T17:49:43.996Z,7.23
2022-12-31T17:52:13.890Z,7.22
2022-12-31T17:54:41.196Z,7.22
2022-12-31T17:57:25.733Z,7.20
2022-12-31T17:59:52.556Z,7.17
2022-12-31T18:02:20.222Z,7.16
2022-12-31T18:04:47.205Z,7.16
2022-12-31T18:07:14.021Z,7.14
2022-12-31T18:09:40.711Z,7.13
2022-12-31T18:12:08.096Z,7.13
2022-12-31T18:14:34.725Z,7.10
2022-12-31T18:17:01.706Z,7.09
2022-12-31T18:22:16.750Z,7.11
2022-12-31T18:24:44.079Z,7.14
2022-12-31T18:27:18.833Z,7.18
2022-12-31T18:29:46.707Z,7.22
2022-12-31T18:32:22.101Z,7.23
2022-12-31T18:34:50.159Z,7.25
2022-12-31T18:37:22.039Z,7.27
2022-12-31T18:39:49.873Z,7.28
2022-12-31T18:42:18.509Z,7.30
2022-12-31T18:44:46.314Z,7.31
2022-12-31T18:47:22.918Z,7.31
2022-12-31T18:49:50.802Z,7.34
2022-12-31T18:52:21.010Z,7.38
2022-12-31T18:54:48.479Z,7.42
2022-12-31T18:57:16.235Z,7.42
2022-12-31T18:59:43.599Z,7.40
2022-12-31T19:02:19.359Z,7.37
2022-12-31T19:04:47.788Z,7.36
2022-12-31T19:07:14.849Z,7.32
2022-12-31T19:09:45.940Z,7.29
2022-12-31T19:12:14.563Z,7.27
2022-12-31T19:14:41.562Z,7.26
2022-12-31T19:19:34.900Z,7.29
2022-12-31T19:22:02.453Z,7.30
2022-12-31T19:24:29.794Z,7.31
2022-12-31T19:26:56.679Z,7.33
2022-12-31T19:29:27.527Z,7.32
2022-12-31T19:31:55.049Z,7.30
2022-12-31T19:34:21.985Z,7.28
2022-12-31T19:36:49.107Z,7.29
2022-12-31T19:39:19.148Z,7.32
2022-12-31T19:41:49.160Z,7.36
2022-12-31T19:44:22.322Z,7.37
2022-12-31T19:46:49.323Z,7.36
2022-12-31T19:49:16.599Z,7.35
2022-12-31T19:51:43.436Z,7.32
2022-12-31T19:54:12.685Z,7.28
2022-12-31T19:56:39.945Z,7.29
2022-12-31T19:59:08.834Z,7.30
2022-12-31T20:01:36.055Z,7.32
2022-12-31T20:04:03.640Z,7.34
2022-12-31T20:06:30.377Z,7.35
2022-12-31T20:08:57.581Z,7.35
2022-12-31T20:11:24.899Z,7.35
2022-12-31T20:13:53.429Z,7.35
2022-12-31T20:16:22.931Z,7.35
2022-12-31T20:18:50.267Z,7.35
2022-12-31T20:21:23.218Z,7.34
2022-12-31T20:23:51.616Z,7.35
2022-12-31T20:26:19.984Z,7.35
2022-12-31T20:28:47.304Z,7.33
2022-12-31T20:31:20.971Z,7.28
2022-12-31T20:33:48.188Z,7.19
2022-12-31T20:36:16.068Z,7.08
2022-12-31T20:38:44.119Z,7.01
2022-12-31T20:41:14.527Z,6.98
2022-12-31T20:43:41.994Z,7.00
2022-12-31T20:46:15.949Z,7.00
2022-12-31T20:48:44.060Z,6.98
2022-12-31T20:51:11.586Z,6.95
2022-12-31T20:53:38.903Z,6.92
2022-12-31T20:56:07.423Z,6.92
2022-12-31T20:58:34.628Z,6.93
2022-12-31T21:01:02.121Z,6.94
2022-12-31T21:06:16.974Z,6.97
2022-12-31T21:08:44.084Z,6.96
2022-12-31T21:11:30.381Z,6.96
2022-12-31T21:13:58.623Z,6.94
2022-12-31T21:16:26.892Z,6.92
2022-12-31T21:18:54.084Z,6.94
2022-12-31T21:21:21.545Z,6.93
2022-12-31T21:23:48.657Z,6.92
2022-12-31T21:26:16.209Z,6.91
2022-12-31T21:28:43.500Z,6.90
2022-12-31T21:31:12.638Z,6.86
2022-12-31T21:33:43.647Z,6.85
2022-12-31T21:36:11.453Z,6.86
2022-12-31T21:38:38.568Z,6.89
2022-12-31T21:41:07.014Z,6.91
2022-12-31T21:43:34.789Z,6.93
2022-12-31T21:46:06.943Z,6.96
2022-12-31T21:48:34.218Z,6.97
2022-12-31T21:51:07.740Z,6.95
2022-12-31T21:53:37.207Z,6.97
2022-12-31T21:56:08.663Z,7.02
2022-12-31T21:58:39.404Z,7.04
2022-12-31T22:01:26.586Z,7.07
2022-12-31T22:03:54.139Z,7.04
2022-12-31T22:06:22.796Z,7.03
2022-12-31T22:08:52.319Z,7.01
2022-12-31T22:11:21.387Z,7.00
2022-12-31T22:13:48.376Z,7.00
2022-12-31T22:16:16.778Z,7.00
2022-12-31T22:18:44.147Z,7.01
2022-12-31T22:21:24.987Z,7.01
2022-12-31T22:23:56.459Z,7.01
2022-12-31T22:26:25.603Z,7.00
2022-12-31T22:28:52.597Z,7.02
2022-12-31T22:31:22.799Z,7.04
2022-12-31T22:33:50.531Z,7.05
2022-12-31T22:36:20.141Z,7.07
2022-12-31T22:38:48.169Z,7.08
2022-12-31T22:41:20.689Z,7.08
2022-12-31T22:43:50.639Z,7.09
2022-12-31T22:46:20.826Z,7.11
2022-12-31T22:48:48.114Z,7.12
2022-12-31T22:51:16.015Z,7.13
2022-12-31T22:53:43.197Z,7.12
2022-12-31T22:56:12.431Z,7.10
2022-12-31T22:58:39.570Z,7.10
2022-12-31T23:01:13.137Z,7.10
2022-12-31T23:03:41.930Z,7.12
2022-12-31T23:06:10.343Z,7.11
2022-12-31T23:08:37.313Z,7.11
2022-12-31T23:11:09.316Z,7.11
2022-12-31T23:13:58.914Z,7.13
2022-12-31T23:16:47.156Z,7.17
2022-12-31T23:19:34.493Z,7.21
2022-12-31T23:22:20.573Z,7.22
2022-12-31T23:24:47.225Z,7.23
2022-12-31T23:27:14.019Z,7.22
2022-12-31T23:29:46.575Z,7.23
2022-12-31T23:32:16.227Z,7.25
2022-12-31T23:34:44.680Z,7.26
2022-12-31T23:37:13.384Z,7.27
2022-12-31T23:39:41.451Z,7.27
2022-12-31T23:42:13.253Z,7.26
2022-12-31T23:44:41.254Z,7.25
2022-12-31T23:47:17.983Z,7.26
2022-12-31T23:49:45.888Z,7.28
2022-12-31T23:52:13.724Z,7.28
2022-12-31T23:54:41.248Z,7.28
2022-12-31T23:57:08.737Z,7.27
2022-12-31T23:59:36.716Z,7.29
